sensor_id;sensor_type;location;lat;lon;timestamp;P1;durP1;ratioP1;P2;durP2;ratioP2
24173;SDS011;12324;48.146;11.502;2023-07-02T00:01:53;6.53;;;3.17;;
24173;SDS011;12324;48.146;11.502;2023-07-02T00:04:20;6.30;;;2.78;;
24173;SDS011;12324;48.146;11.502;2023-07-02T00:06:47;5.18;;;2.40;;
24173;SDS011;12324;48.146;11.502;2023-07-02T00:09:14;5.05;;;2.25;;
24173;SDS011;12324;48.146;11.502;2023-07-02T00:11:43;7.03;;;2.88;;
24173;SDS011;12324;48.146;11.502;2023-07-02T00:14:14;5.50;;;2.80;;
24173;SDS011;12324;48.146;11.502;2023-07-02T00:16:44;5.35;;;3.05;;
24173;SDS011;12324;48.146;11.502;2023-07-02T00:19:13;4.57;;;2.83;;
24173;SDS011;12324;48.146;11.502;2023-07-02T00:21:41;5.22;;;2.63;;
24173;SDS011;12324;48.146;11.502;2023-07-02T00:24:08;6.05;;;2.72;;
24173;SDS011;12324;48.146;11.502;2023-07-02T00:26:36;7.47;;;2.33;;
24173;SDS011;12324;48.146;11.502;2023-07-02T00:29:04;5.57;;;2.88;;
24173;SDS011;12324;48.146;11.502;2023-07-02T00:31:32;4.85;;;2.50;;
24173;SDS011;12324;48.146;11.502;2023-07-02T00:34:00;8.45;;;2.72;;
24173;SDS011;12324;48.146;11.502;2023-07-02T00:36:28;4.53;;;2.55;;
24173;SDS011;12324;48.146;11.502;2023-07-02T00:38:55;3.67;;;2.17;;
24173;SDS011;12324;48.146;11.502;2023-07-02T00:41:22;6.47;;;2.75;;
24173;SDS011;12324;48.146;11.502;2023-07-02T00:43:50;4.10;;;2.40;;
24173;SDS011;12324;48.146;11.502;2023-07-02T00:46:20;5.50;;;2.33;;
24173;SDS011;12324;48.146;11.502;2023-07-02T00:48:49;4.53;;;2.40;;
24173;SDS011;12324;48.146;11.502;2023-07-02T00:51:17;2.83;;;1.90;;
24173;SDS011;12324;48.146;11.502;2023-07-02T00:53:45;4.40;;;2.15;;
24173;SDS011;12324;48.146;11.502;2023-07-02T00:56:12;3.15;;;2.08;;
24173;SDS011;12324;48.146;11.502;2023-07-02T00:58:43;4.68;;;2.15;;
24173;SDS011;12324;48.146;11.502;2023-07-02T01:01:13;4.97;;;2.50;;
24173;SDS011;12324;48.146;11.502;2023-07-02T01:04:02;2.97;;;2.20;;
24173;SDS011;12324;48.146;11.502;2023-07-02T01:06:30;3.67;;;1.90;;
24173;SDS011;12324;48.146;11.502;2023-07-02T01:08:59;3.75;;;1.75;;
24173;SDS011;12324;48.146;11.502;2023-07-02T01:11:28;2.85;;;1.75;;
24173;SDS011;12324;48.146;11.502;2023-07-02T01:14:04;3.03;;;1.85;;
24173;SDS011;12324;48.146;11.502;2023-07-02T01:16:32;1.88;;;1.65;;
24173;SDS011;12324;48.146;11.502;2023-07-02T01:19:01;2.53;;;1.58;;
24173;SDS011;12324;48.146;11.502;2023-07-02T01:21:29;1.88;;;1.55;;
24173;SDS011;12324;48.146;11.502;2023-07-02T01:23:58;2.38;;;1.58;;
24173;SDS011;12324;48.146;11.502;2023-07-02T01:26:28;1.60;;;1.50;;
24173;SDS011;12324;48.146;11.502;2023-07-02T01:28:55;2.70;;;1.83;;
24173;SDS011;12324;48.146;11.502;2023-07-02T01:31:23;3.75;;;1.58;;
24173;SDS011;12324;48.146;11.502;2023-07-02T01:33:51;3.00;;;1.83;;
24173;SDS011;12324;48.146;11.502;2023-07-02T01:36:19;5.68;;;2.00;;
24173;SDS011;12324;48.146;11.502;2023-07-02T01:38:46;3.50;;;2.03;;
24173;SDS011;12324;48.146;11.502;2023-07-02T01:41:13;3.97;;;1.60;;
24173;SDS011;12324;48.146;11.502;2023-07-02T01:43:40;3.78;;;1.83;;
24173;SDS011;12324;48.146;11.502;2023-07-02T01:46:07;2.20;;;1.80;;
24173;SDS011;12324;48.146;11.502;2023-07-02T01:48:35;2.65;;;1.58;;
24173;SDS011;12324;48.146;11.502;2023-07-02T01:51:02;2.70;;;1.80;;
24173;SDS011;12324;48.146;11.502;2023-07-02T01:53:29;4.07;;;1.98;;
24173;SDS011;12324;48.146;11.502;2023-07-02T01:55:56;3.45;;;1.90;;
24173;SDS011;12324;48.146;11.502;2023-07-02T01:58:23;2.03;;;1.63;;
24173;SDS011;12324;48.146;11.502;2023-07-02T02:00:50;2.13;;;1.58;;
24173;SDS011;12324;48.146;11.502;2023-07-02T02:03:17;2.15;;;1.58;;
24173;SDS011;12324;48.146;11.502;2023-07-02T02:05:45;2.70;;;1.73;;
24173;SDS011;12324;48.146;11.502;2023-07-02T02:08:12;3.15;;;1.67;;
24173;SDS011;12324;48.146;11.502;2023-07-02T02:10:39;2.15;;;1.65;;
24173;SDS011;12324;48.146;11.502;2023-07-02T02:13:06;3.10;;;1.92;;
24173;SDS011;12324;48.146;11.502;2023-07-02T02:15:33;3.22;;;1.73;;
24173;SDS011;12324;48.146;11.502;2023-07-02T02:18:00;4.07;;;1.90;;
24173;SDS011;12324;48.146;11.502;2023-07-02T02:20:27;2.83;;;1.85;;
24173;SDS011;12324;48.146;11.502;2023-07-02T02:22:55;3.63;;;1.83;;
24173;SDS011;12324;48.146;11.502;2023-07-02T02:25:22;2.58;;;1.75;;
24173;SDS011;12324;48.146;11.502;2023-07-02T02:27:49;3.47;;;1.92;;
24173;SDS011;12324;48.146;11.502;2023-07-02T02:30:16;4.03;;;1.80;;
24173;SDS011;12324;48.146;11.502;2023-07-02T02:32:43;3.35;;;1.77;;
24173;SDS011;12324;48.146;11.502;2023-07-02T02:35:10;3.17;;;1.90;;
24173;SDS011;12324;48.146;11.502;2023-07-02T02:37:38;2.88;;;1.83;;
24173;SDS011;12324;48.146;11.502;2023-07-02T02:40:08;4.32;;;1.80;;
24173;SDS011;12324;48.146;11.502;2023-07-02T02:42:36;4.38;;;2.00;;
24173;SDS011;12324;48.146;11.502;2023-07-02T02:45:03;2.85;;;2.10;;
24173;SDS011;12324;48.146;11.502;2023-07-02T02:47:30;2.75;;;1.77;;
24173;SDS011;12324;48.146;11.502;2023-07-02T02:49:58;2.95;;;1.52;;
24173;SDS011;12324;48.146;11.502;2023-07-02T02:52:25;3.80;;;2.08;;
24173;SDS011;12324;48.146;11.502;2023-07-02T02:54:53;4.40;;;2.17;;
24173;SDS011;12324;48.146;11.502;2023-07-02T02:57:20;3.30;;;1.88;;
24173;SDS011;12324;48.146;11.502;2023-07-02T02:59:47;3.20;;;1.67;;
24173;SDS011;12324;48.146;11.502;2023-07-02T03:02:14;3.03;;;2.00;;
24173;SDS011;12324;48.146;11.502;2023-07-02T03:04:41;1.80;;;1.65;;
24173;SDS011;12324;48.146;11.502;2023-07-02T03:07:10;1.90;;;1.67;;
24173;SDS011;12324;48.146;11.502;2023-07-02T03:09:38;3.88;;;1.80;;
24173;SDS011;12324;48.146;11.502;2023-07-02T03:12:05;2.88;;;1.70;;
24173;SDS011;12324;48.146;11.502;2023-07-02T03:14:32;4.05;;;1.98;;
24173;SDS011;12324;48.146;11.502;2023-07-02T03:16:59;3.75;;;1.90;;
24173;SDS011;12324;48.146;11.502;2023-07-02T03:19:27;5.30;;;2.33;;
24173;SDS011;12324;48.146;11.502;2023-07-02T03:21:54;4.15;;;2.05;;
24173;SDS011;12324;48.146;11.502;2023-07-02T03:24:21;6.32;;;2.83;;
24173;SDS011;12324;48.146;11.502;2023-07-02T03:26:48;3.63;;;2.15;;
24173;SDS011;12324;48.146;11.502;2023-07-02T03:29:14;3.72;;;2.42;;
24173;SDS011;12324;48.146;11.502;2023-07-02T03:31:42;6.55;;;2.88;;
24173;SDS011;12324;48.146;11.502;2023-07-02T03:34:09;6.45;;;2.90;;
24173;SDS011;12324;48.146;11.502;2023-07-02T03:36:36;7.13;;;3.08;;
24173;SDS011;12324;48.146;11.502;2023-07-02T03:39:03;6.10;;;3.28;;
24173;SDS011;12324;48.146;11.502;2023-07-02T03:41:35;4.30;;;2.70;;
24173;SDS011;12324;48.146;11.502;2023-07-02T03:44:02;3.47;;;2.47;;
24173;SDS011;12324;48.146;11.502;2023-07-02T03:46:28;6.68;;;2.80;;
24173;SDS011;12324;48.146;11.502;2023-07-02T03:48:57;5.78;;;2.90;;
24173;SDS011;12324;48.146;11.502;2023-07-02T03:51:24;6.05;;;2.88;;
24173;SDS011;12324;48.146;11.502;2023-07-02T03:53:51;9.20;;;3.17;;
24173;SDS011;12324;48.146;11.502;2023-07-02T03:56:17;8.68;;;3.55;;
24173;SDS011;12324;48.146;11.502;2023-07-02T03:58:45;7.80;;;3.60;;
24173;SDS011;12324;48.146;11.502;2023-07-02T04:01:12;5.18;;;2.80;;
24173;SDS011;12324;48.146;11.502;2023-07-02T04:03:47;7.68;;;3.63;;
24173;SDS011;12324;48.146;11.502;2023-07-02T04:06:15;7.53;;;3.53;;
24173;SDS011;12324;48.146;11.502;2023-07-02T04:08:43;9.13;;;3.85;;
24173;SDS011;12324;48.146;11.502;2023-07-02T04:11:10;9.30;;;3.17;;
24173;SDS011;12324;48.146;11.502;2023-07-02T04:13:38;8.20;;;3.78;;
24173;SDS011;12324;48.146;11.502;2023-07-02T04:16:05;8.35;;;3.67;;
24173;SDS011;12324;48.146;11.502;2023-07-02T04:18:32;6.20;;;3.38;;
24173;SDS011;12324;48.146;11.502;2023-07-02T04:21:00;7.32;;;3.42;;
24173;SDS011;12324;48.146;11.502;2023-07-02T04:23:27;8.43;;;3.40;;
24173;SDS011;12324;48.146;11.502;2023-07-02T04:25:54;6.60;;;3.30;;
24173;SDS011;12324;48.146;11.502;2023-07-02T04:28:41;8.90;;;3.97;;
24173;SDS011;12324;48.146;11.502;2023-07-02T04:31:08;7.93;;;3.90;;
24173;SDS011;12324;48.146;11.502;2023-07-02T04:33:34;7.88;;;3.50;;
24173;SDS011;12324;48.146;11.502;2023-07-02T04:36:04;7.22;;;3.40;;
24173;SDS011;12324;48.146;11.502;2023-07-02T04:38:31;12.68;;;4.13;;
24173;SDS011;12324;48.146;11.502;2023-07-02T04:40:58;8.48;;;3.85;;
24173;SDS011;12324;48.146;11.502;2023-07-02T04:43:27;8.88;;;4.10;;
24173;SDS011;12324;48.146;11.502;2023-07-02T04:45:57;6.57;;;3.10;;
24173;SDS011;12324;48.146;11.502;2023-07-02T04:48:24;7.60;;;3.83;;
24173;SDS011;12324;48.146;11.502;2023-07-02T04:50:51;7.78;;;3.95;;
24173;SDS011;12324;48.146;11.502;2023-07-02T04:53:17;10.85;;;3.88;;
24173;SDS011;12324;48.146;11.502;2023-07-02T04:55:44;7.07;;;3.67;;
24173;SDS011;12324;48.146;11.502;2023-07-02T04:58:11;8.27;;;3.33;;
24173;SDS011;12324;48.146;11.502;2023-07-02T05:00:38;9.15;;;3.38;;
24173;SDS011;12324;48.146;11.502;2023-07-02T05:03:04;7.38;;;3.70;;
24173;SDS011;12324;48.146;11.502;2023-07-02T05:05:31;7.47;;;3.65;;
24173;SDS011;12324;48.146;11.502;2023-07-02T05:07:58;8.15;;;4.20;;
24173;SDS011;12324;48.146;11.502;2023-07-02T05:10:25;8.00;;;3.55;;
24173;SDS011;12324;48.146;11.502;2023-07-02T05:12:51;6.32;;;3.60;;
24173;SDS011;12324;48.146;11.502;2023-07-02T05:15:18;7.22;;;3.58;;
24173;SDS011;12324;48.146;11.502;2023-07-02T05:17:45;8.38;;;3.97;;
24173;SDS011;12324;48.146;11.502;2023-07-02T05:20:11;6.43;;;3.28;;
24173;SDS011;12324;48.146;11.502;2023-07-02T05:22:38;7.70;;;3.92;;
24173;SDS011;12324;48.146;11.502;2023-07-02T05:25:05;6.65;;;3.40;;
24173;SDS011;12324;48.146;11.502;2023-07-02T05:27:32;4.90;;;2.90;;
24173;SDS011;12324;48.146;11.502;2023-07-02T05:29:59;8.43;;;3.92;;
24173;SDS011;12324;48.146;11.502;2023-07-02T05:32:26;8.15;;;3.70;;
24173;SDS011;12324;48.146;11.502;2023-07-02T05:34:53;7.63;;;3.47;;
24173;SDS011;12324;48.146;11.502;2023-07-02T05:37:20;7.05;;;3.70;;
24173;SDS011;12324;48.146;11.502;2023-07-02T05:39:47;5.90;;;3.03;;
24173;SDS011;12324;48.146;11.502;2023-07-02T05:42:14;8.02;;;3.75;;
24173;SDS011;12324;48.146;11.502;2023-07-02T05:44:41;7.50;;;3.78;;
24173;SDS011;12324;48.146;11.502;2023-07-02T05:47:08;6.93;;;3.17;;
24173;SDS011;12324;48.146;11.502;2023-07-02T05:49:35;6.90;;;3.70;;
24173;SDS011;12324;48.146;11.502;2023-07-02T05:52:01;6.75;;;3.13;;
24173;SDS011;12324;48.146;11.502;2023-07-02T05:54:28;7.60;;;3.58;;
24173;SDS011;12324;48.146;11.502;2023-07-02T05:56:55;6.40;;;3.30;;
24173;SDS011;12324;48.146;11.502;2023-07-02T05:59:21;6.07;;;3.22;;
24173;SDS011;12324;48.146;11.502;2023-07-02T06:01:48;11.68;;;3.65;;
24173;SDS011;12324;48.146;11.502;2023-07-02T06:04:15;6.47;;;3.35;;
24173;SDS011;12324;48.146;11.502;2023-07-02T06:06:42;7.20;;;3.30;;
24173;SDS011;12324;48.146;11.502;2023-07-02T06:09:09;7.05;;;3.08;;
24173;SDS011;12324;48.146;11.502;2023-07-02T06:11:35;9.07;;;3.88;;
24173;SDS011;12324;48.146;11.502;2023-07-02T06:14:04;8.25;;;3.53;;
24173;SDS011;12324;48.146;11.502;2023-07-02T06:16:30;5.72;;;3.22;;
24173;SDS011;12324;48.146;11.502;2023-07-02T06:18:57;6.70;;;3.08;;
24173;SDS011;12324;48.146;11.502;2023-07-02T06:21:24;7.80;;;3.00;;
24173;SDS011;12324;48.146;11.502;2023-07-02T06:23:56;6.43;;;3.13;;
24173;SDS011;12324;48.146;11.502;2023-07-02T06:26:25;7.25;;;3.22;;
24173;SDS011;12324;48.146;11.502;2023-07-02T06:28:51;6.25;;;3.35;;
24173;SDS011;12324;48.146;11.502;2023-07-02T06:31:18;5.18;;;2.92;;
24173;SDS011;12324;48.146;11.502;2023-07-02T06:33:45;5.53;;;3.17;;
24173;SDS011;12324;48.146;11.502;2023-07-02T06:36:13;7.90;;;3.80;;
24173;SDS011;12324;48.146;11.502;2023-07-02T06:38:43;5.18;;;2.72;;
24173;SDS011;12324;48.146;11.502;2023-07-02T06:41:10;6.13;;;3.28;;
24173;SDS011;12324;48.146;11.502;2023-07-02T06:43:37;5.30;;;2.97;;
24173;SDS011;12324;48.146;11.502;2023-07-02T06:46:04;8.73;;;4.25;;
24173;SDS011;12324;48.146;11.502;2023-07-02T06:48:30;8.52;;;3.55;;
24173;SDS011;12324;48.146;11.502;2023-07-02T06:50:57;7.13;;;3.88;;
24173;SDS011;12324;48.146;11.502;2023-07-02T06:53:24;6.35;;;3.42;;
24173;SDS011;12324;48.146;11.502;2023-07-02T06:55:51;8.20;;;4.13;;
24173;SDS011;12324;48.146;11.502;2023-07-02T06:58:18;7.55;;;3.67;;
24173;SDS011;12324;48.146;11.502;2023-07-02T07:00:45;5.90;;;3.63;;
24173;SDS011;12324;48.146;11.502;2023-07-02T07:03:11;7.28;;;3.83;;
24173;SDS011;12324;48.146;11.502;2023-07-02T07:05:38;7.80;;;3.47;;
24173;SDS011;12324;48.146;11.502;2023-07-02T07:08:05;8.32;;;2.97;;
24173;SDS011;12324;48.146;11.502;2023-07-02T07:10:32;7.50;;;3.50;;
24173;SDS011;12324;48.146;11.502;2023-07-02T07:13:02;9.73;;;4.20;;
24173;SDS011;12324;48.146;11.502;2023-07-02T07:15:33;0.60;;;0.60;;
24173;SDS011;12324;48.146;11.502;2023-07-02T07:18:01;1.00;;;1.00;;
24173;SDS011;12324;48.146;11.502;2023-07-02T07:20:29;0.80;;;0.63;;
24173;SDS011;12324;48.146;11.502;2023-07-02T07:22:57;1.85;;;0.73;;
24173;SDS011;12324;48.146;11.502;2023-07-02T07:25:23;1.45;;;0.90;;
24173;SDS011;12324;48.146;11.502;2023-07-02T07:27:51;0.57;;;0.57;;
24173;SDS011;12324;48.146;11.502;2023-07-02T07:30:18;1.40;;;1.30;;
24173;SDS011;12324;48.146;11.502;2023-07-02T07:32:52;0.82;;;0.82;;
24173;SDS011;12324;48.146;11.502;2023-07-02T07:35:20;0.75;;;0.75;;
24173;SDS011;12324;48.146;11.502;2023-07-02T07:37:48;0.85;;;0.85;;
24173;SDS011;12324;48.146;11.502;2023-07-02T07:40:15;1.25;;;1.13;;
24173;SDS011;12324;48.146;11.502;2023-07-02T07:42:42;1.10;;;0.88;;
24173;SDS011;12324;48.146;11.502;2023-07-02T07:45:09;1.02;;;0.93;;
24173;SDS011;12324;48.146;11.502;2023-07-02T07:47:37;2.17;;;1.38;;
24173;SDS011;12324;48.146;11.502;2023-07-02T07:50:05;0.80;;;0.60;;
24173;SDS011;12324;48.146;11.502;2023-07-02T07:52:40;0.40;;;0.40;;
24173;SDS011;12324;48.146;11.502;2023-07-02T07:55:08;0.77;;;0.77;;
24173;SDS011;12324;48.146;11.502;2023-07-02T07:57:36;2.22;;;1.05;;
24173;SDS011;12324;48.146;11.502;2023-07-02T08:00:04;1.15;;;1.05;;
24173;SDS011;12324;48.146;11.502;2023-07-02T08:05:04;0.73;;;0.73;;
24173;SDS011;12324;48.146;11.502;2023-07-02T08:07:31;0.40;;;0.40;;
24173;SDS011;12324;48.146;11.502;2023-07-02T08:09:59;0.60;;;0.60;;
24173;SDS011;12324;48.146;11.502;2023-07-02T08:12:26;0.30;;;0.30;;
24173;SDS011;12324;48.146;11.502;2023-07-02T08:14:55;0.85;;;0.80;;
24173;SDS011;12324;48.146;11.502;2023-07-02T08:17:22;0.35;;;0.35;;
24173;SDS011;12324;48.146;11.502;2023-07-02T08:19:49;0.80;;;0.80;;
24173;SDS011;12324;48.146;11.502;2023-07-02T08:22:15;0.85;;;0.85;;
24173;SDS011;12324;48.146;11.502;2023-07-02T08:24:42;0.55;;;0.55;;
24173;SDS011;12324;48.146;11.502;2023-07-02T08:27:09;0.70;;;0.65;;
24173;SDS011;12324;48.146;11.502;2023-07-02T08:29:39;0.60;;;0.60;;
24173;SDS011;12324;48.146;11.502;2023-07-02T08:32:06;0.60;;;0.60;;
24173;SDS011;12324;48.146;11.502;2023-07-02T08:34:33;0.45;;;0.45;;
24173;SDS011;12324;48.146;11.502;2023-07-02T08:37:00;0.50;;;0.50;;
24173;SDS011;12324;48.146;11.502;2023-07-02T08:39:27;0.73;;;0.65;;
24173;SDS011;12324;48.146;11.502;2023-07-02T08:41:53;0.80;;;0.80;;
24173;SDS011;12324;48.146;11.502;2023-07-02T08:44:20;0.60;;;0.60;;
24173;SDS011;12324;48.146;11.502;2023-07-02T08:46:48;0.88;;;0.68;;
24173;SDS011;12324;48.146;11.502;2023-07-02T08:49:17;0.50;;;0.50;;
24173;SDS011;12324;48.146;11.502;2023-07-02T08:51:44;0.50;;;0.50;;
24173;SDS011;12324;48.146;11.502;2023-07-02T08:54:12;1.45;;;0.82;;
24173;SDS011;12324;48.146;11.502;2023-07-02T08:56:40;1.65;;;0.95;;
24173;SDS011;12324;48.146;11.502;2023-07-02T08:59:08;2.67;;;2.17;;
24173;SDS011;12324;48.146;11.502;2023-07-02T09:01:48;0.40;;;0.40;;
24173;SDS011;12324;48.146;11.502;2023-07-02T09:04:23;0.30;;;0.30;;
24173;SDS011;12324;48.146;11.502;2023-07-02T09:07:02;7.05;;;1.35;;
24173;SDS011;12324;48.146;11.502;2023-07-02T09:09:33;1.55;;;0.93;;
24173;SDS011;12324;48.146;11.502;2023-07-02T09:12:30;0.40;;;0.40;;
24173;SDS011;12324;48.146;11.502;2023-07-02T09:15:02;0.63;;;0.63;;
24173;SDS011;12324;48.146;11.502;2023-07-02T09:17:33;0.63;;;0.63;;
24173;SDS011;12324;48.146;11.502;2023-07-02T09:20:02;0.40;;;0.40;;
24173;SDS011;12324;48.146;11.502;2023-07-02T09:22:33;0.40;;;0.40;;
24173;SDS011;12324;48.146;11.502;2023-07-02T09:25:00;0.50;;;0.50;;
24173;SDS011;12324;48.146;11.502;2023-07-02T09:27:35;0.30;;;0.30;;
24173;SDS011;12324;48.146;11.502;2023-07-02T09:30:06;1.80;;;0.80;;
24173;SDS011;12324;48.146;11.502;2023-07-02T09:32:42;0.98;;;0.95;;
24173;SDS011;12324;48.146;11.502;2023-07-02T09:35:11;0.45;;;0.45;;
24173;SDS011;12324;48.146;11.502;2023-07-02T09:37:38;2.28;;;2.00;;
24173;SDS011;12324;48.146;11.502;2023-07-02T09:40:07;0.47;;;0.47;;
24173;SDS011;12324;48.146;11.502;2023-07-02T09:42:35;0.40;;;0.40;;
24173;SDS011;12324;48.146;11.502;2023-07-02T09:45:05;0.30;;;0.30;;
24173;SDS011;12324;48.146;11.502;2023-07-02T09:47:35;0.68;;;0.68;;
24173;SDS011;12324;48.146;11.502;2023-07-02T09:50:07;0.50;;;0.50;;
24173;SDS011;12324;48.146;11.502;2023-07-02T09:52:36;0.40;;;0.40;;
24173;SDS011;12324;48.146;11.502;2023-07-02T09:55:04;1.33;;;0.90;;
24173;SDS011;12324;48.146;11.502;2023-07-02T09:57:32;1.15;;;0.82;;
24173;SDS011;12324;48.146;11.502;2023-07-02T10:00:01;1.23;;;1.13;;
24173;SDS011;12324;48.146;11.502;2023-07-02T10:02:28;3.60;;;1.67;;
24173;SDS011;12324;48.146;11.502;2023-07-02T10:04:55;0.50;;;0.50;;
24173;SDS011;12324;48.146;11.502;2023-07-02T10:07:27;0.70;;;0.70;;
24173;SDS011;12324;48.146;11.502;2023-07-02T10:09:58;0.90;;;0.90;;
24173;SDS011;12324;48.146;11.502;2023-07-02T10:12:26;0.30;;;0.30;;
24173;SDS011;12324;48.146;11.502;2023-07-02T10:14:54;0.55;;;0.55;;
24173;SDS011;12324;48.146;11.502;2023-07-02T10:17:23;0.95;;;0.93;;
24173;SDS011;12324;48.146;11.502;2023-07-02T10:19:51;1.30;;;0.98;;
24173;SDS011;12324;48.146;11.502;2023-07-02T10:22:19;2.45;;;2.25;;
24173;SDS011;12324;48.146;11.502;2023-07-02T10:24:56;0.30;;;0.30;;
24173;SDS011;12324;48.146;11.502;2023-07-02T10:27:35;0.95;;;0.95;;
24173;SDS011;12324;48.146;11.502;2023-07-02T10:30:03;0.47;;;0.47;;
24173;SDS011;12324;48.146;11.502;2023-07-02T10:32:32;1.55;;;0.95;;
24173;SDS011;12324;48.146;11.502;2023-07-02T10:35:01;0.60;;;0.55;;
24173;SDS011;12324;48.146;11.502;2023-07-02T10:37:35;0.65;;;0.65;;
24173;SDS011;12324;48.146;11.502;2023-07-02T10:40:08;0.60;;;0.60;;
24173;SDS011;12324;48.146;11.502;2023-07-02T10:42:45;0.93;;;0.80;;
24173;SDS011;12324;48.146;11.502;2023-07-02T10:45:16;2.28;;;2.05;;
24173;SDS011;12324;48.146;11.502;2023-07-02T10:47:43;2.13;;;1.00;;
24173;SDS011;12324;48.146;11.502;2023-07-02T10:50:16;0.40;;;0.40;;
24173;SDS011;12324;48.146;11.502;2023-07-02T10:52:45;2.03;;;1.20;;
24173;SDS011;12324;48.146;11.502;2023-07-02T10:55:18;2.80;;;1.92;;
24173;SDS011;12324;48.146;11.502;2023-07-02T10:57:46;0.65;;;0.65;;
24173;SDS011;12324;48.146;11.502;2023-07-02T11:00:14;0.77;;;0.73;;
24173;SDS011;12324;48.146;11.502;2023-07-02T11:02:41;2.80;;;1.25;;
24173;SDS011;12324;48.146;11.502;2023-07-02T11:05:08;1.05;;;1.05;;
24173;SDS011;12324;48.146;11.502;2023-07-02T11:07:40;0.80;;;0.80;;
24173;SDS011;12324;48.146;11.502;2023-07-02T11:10:08;5.72;;;1.67;;
24173;SDS011;12324;48.146;11.502;2023-07-02T11:12:35;4.30;;;1.92;;
24173;SDS011;12324;48.146;11.502;2023-07-02T11:15:10;0.70;;;0.70;;
24173;SDS011;12324;48.146;11.502;2023-07-02T11:17:38;2.13;;;1.20;;
24173;SDS011;12324;48.146;11.502;2023-07-02T11:20:11;1.20;;;0.85;;
24173;SDS011;12324;48.146;11.502;2023-07-02T11:22:39;0.60;;;0.60;;
24173;SDS011;12324;48.146;11.502;2023-07-02T11:27:37;3.15;;;1.95;;
24173;SDS011;12324;48.146;11.502;2023-07-02T11:30:04;1.17;;;0.98;;
24173;SDS011;12324;48.146;11.502;2023-07-02T11:32:34;3.20;;;1.10;;
24173;SDS011;12324;48.146;11.502;2023-07-02T11:35:14;1.23;;;0.93;;
24173;SDS011;12324;48.146;11.502;2023-07-02T11:37:42;3.90;;;1.90;;
24173;SDS011;12324;48.146;11.502;2023-07-02T11:40:09;2.75;;;1.65;;
24173;SDS011;12324;48.146;11.502;2023-07-02T11:42:37;2.17;;;1.05;;
24173;SDS011;12324;48.146;11.502;2023-07-02T11:45:04;0.95;;;0.95;;
24173;SDS011;12324;48.146;11.502;2023-07-02T11:47:31;2.70;;;2.22;;
24173;SDS011;12324;48.146;11.502;2023-07-02T11:49:58;1.27;;;1.17;;
24173;SDS011;12324;48.146;11.502;2023-07-02T11:52:34;1.77;;;1.15;;
24173;SDS011;12324;48.146;11.502;2023-07-02T11:55:04;2.42;;;1.38;;
24173;SDS011;12324;48.146;11.502;2023-07-02T11:57:31;2.72;;;1.77;;
24173;SDS011;12324;48.146;11.502;2023-07-02T11:59:58;2.70;;;1.55;;
24173;SDS011;12324;48.146;11.502;2023-07-02T12:02:26;2.42;;;1.08;;
24173;SDS011;12324;48.146;11.502;2023-07-02T12:04:53;3.28;;;1.85;;
24173;SDS011;12324;48.146;11.502;2023-07-02T12:07:20;6.07;;;1.65;;
24173;SDS011;12324;48.146;11.502;2023-07-02T12:09:47;2.33;;;1.60;;
24173;SDS011;12324;48.146;11.502;2023-07-02T12:12:15;0.73;;;0.73;;
24173;SDS011;12324;48.146;11.502;2023-07-02T12:14:42;1.40;;;1.20;;
24173;SDS011;12324;48.146;11.502;2023-07-02T12:17:09;10.43;;;2.15;;
24173;SDS011;12324;48.146;11.502;2023-07-02T12:19:40;6.28;;;3.25;;
24173;SDS011;12324;48.146;11.502;2023-07-02T12:22:07;2.47;;;1.60;;
24173;SDS011;12324;48.146;11.502;2023-07-02T12:24:34;2.63;;;1.30;;
24173;SDS011;12324;48.146;11.502;2023-07-02T12:27:01;1.98;;;1.08;;
24173;SDS011;12324;48.146;11.502;2023-07-02T12:29:28;6.53;;;2.92;;
24173;SDS011;12324;48.146;11.502;2023-07-02T12:31:55;1.15;;;1.10;;
24173;SDS011;12324;48.146;11.502;2023-07-02T12:34:22;2.63;;;1.80;;
24173;SDS011;12324;48.146;11.502;2023-07-02T12:36:49;1.33;;;1.20;;
24173;SDS011;12324;48.146;11.502;2023-07-02T12:39:16;4.57;;;2.33;;
24173;SDS011;12324;48.146;11.502;2023-07-02T12:41:46;7.00;;;2.78;;
24173;SDS011;12324;48.146;11.502;2023-07-02T12:44:13;1.02;;;0.93;;
24173;SDS011;12324;48.146;11.502;2023-07-02T12:46:41;3.08;;;1.27;;
24173;SDS011;12324;48.146;11.502;2023-07-02T12:49:08;2.35;;;1.25;;
24173;SDS011;12324;48.146;11.502;2023-07-02T12:51:35;5.00;;;3.33;;
24173;SDS011;12324;48.146;11.502;2023-07-02T12:54:02;4.50;;;2.22;;
24173;SDS011;12324;48.146;11.502;2023-07-02T12:56:30;5.97;;;3.15;;
24173;SDS011;12324;48.146;11.502;2023-07-02T12:58:57;3.13;;;1.35;;
24173;SDS011;12324;48.146;11.502;2023-07-02T13:01:24;5.63;;;1.75;;
24173;SDS011;12324;48.146;11.502;2023-07-02T13:03:51;1.60;;;1.38;;
24173;SDS011;12324;48.146;11.502;2023-07-02T13:06:18;7.88;;;2.10;;
24173;SDS011;12324;48.146;11.502;2023-07-02T13:08:46;3.78;;;2.42;;
24173;SDS011;12324;48.146;11.502;2023-07-02T13:11:13;1.00;;;1.00;;
24173;SDS011;12324;48.146;11.502;2023-07-02T13:13:40;1.77;;;1.25;;
24173;SDS011;12324;48.146;11.502;2023-07-02T13:16:07;4.20;;;2.15;;
24173;SDS011;12324;48.146;11.502;2023-07-02T13:18:34;6.20;;;2.95;;
24173;SDS011;12324;48.146;11.502;2023-07-02T13:21:01;3.42;;;1.80;;
24173;SDS011;12324;48.146;11.502;2023-07-02T13:23:28;1.77;;;1.27;;
24173;SDS011;12324;48.146;11.502;2023-07-02T13:25:55;1.80;;;1.58;;
24173;SDS011;12324;48.146;11.502;2023-07-02T13:28:22;10.90;;;4.50;;
24173;SDS011;12324;48.146;11.502;2023-07-02T13:30:51;17.50;;;8.48;;
24173;SDS011;12324;48.146;11.502;2023-07-02T13:33:18;20.95;;;11.18;;
24173;SDS011;12324;48.146;11.502;2023-07-02T13:35:45;19.30;;;10.73;;
24173;SDS011;12324;48.146;11.502;2023-07-02T13:38:12;19.80;;;9.90;;
24173;SDS011;12324;48.146;11.502;2023-07-02T13:40:39;23.08;;;10.32;;
24173;SDS011;12324;48.146;11.502;2023-07-02T13:43:07;19.75;;;11.63;;
24173;SDS011;12324;48.146;11.502;2023-07-02T13:45:34;19.38;;;10.55;;
24173;SDS011;12324;48.146;11.502;2023-07-02T13:48:01;20.70;;;11.48;;
24173;SDS011;12324;48.146;11.502;2023-07-02T13:50:28;19.45;;;10.90;;
24173;SDS011;12324;48.146;11.502;2023-07-02T13:52:55;21.13;;;10.55;;
24173;SDS011;12324;48.146;11.502;2023-07-02T13:55:22;20.55;;;10.50;;
24173;SDS011;12324;48.146;11.502;2023-07-02T13:57:54;19.95;;;11.23;;
24173;SDS011;12324;48.146;11.502;2023-07-02T14:00:22;24.92;;;11.38;;
24173;SDS011;12324;48.146;11.502;2023-07-02T14:02:49;21.10;;;11.15;;
24173;SDS011;12324;48.146;11.502;2023-07-02T14:05:16;23.67;;;11.73;;
24173;SDS011;12324;48.146;11.502;2023-07-02T14:07:43;20.85;;;11.50;;
24173;SDS011;12324;48.146;11.502;2023-07-02T14:10:10;17.98;;;8.85;;
24173;SDS011;12324;48.146;11.502;2023-07-02T14:12:38;19.20;;;11.43;;
24173;SDS011;12324;48.146;11.502;2023-07-02T14:15:06;21.25;;;11.70;;
24173;SDS011;12324;48.146;11.502;2023-07-02T14:17:33;21.25;;;11.43;;
24173;SDS011;12324;48.146;11.502;2023-07-02T14:20:01;22.35;;;10.90;;
24173;SDS011;12324;48.146;11.502;2023-07-02T14:22:29;23.05;;;12.20;;
24173;SDS011;12324;48.146;11.502;2023-07-02T14:24:55;19.45;;;10.07;;
24173;SDS011;12324;48.146;11.502;2023-07-02T14:27:22;21.90;;;12.52;;
24173;SDS011;12324;48.146;11.502;2023-07-02T14:29:49;20.67;;;12.00;;
24173;SDS011;12324;48.146;11.502;2023-07-02T14:32:17;21.85;;;12.02;;
24173;SDS011;12324;48.146;11.502;2023-07-02T14:34:44;23.50;;;12.32;;
24173;SDS011;12324;48.146;11.502;2023-07-02T14:37:11;21.92;;;11.80;;
24173;SDS011;12324;48.146;11.502;2023-07-02T14:39:38;24.80;;;13.38;;
24173;SDS011;12324;48.146;11.502;2023-07-02T14:42:10;23.98;;;12.30;;
24173;SDS011;12324;48.146;11.502;2023-07-02T14:44:38;22.80;;;12.23;;